Monroe, MI

2:19 AM EST on February 18, 2018 (GMT -0500)
Custer

Weather History for KTTF - July, 2012

Change the Weather History Date:

Tuesday, July 10, 2012

  Actual Average Record
Temperature  
Mean Temperature 72 °F -  
Max Temperature 80 °F 85 °F 102 °F (1936)
Min Temperature 64 °F 64 °F 50 °F (1997)
Cooling Degree Days 7    
Growing Degree Days 22 (Base 50)    
Moisture  
Dew Point 58 °F    
Average Humidity 63    
Maximum Humidity 100    
Minimum Humidity 32    
Precipitation  
Precipitation 0.00 in - - ()
Sea Level Pressure  
Sea Level Pressure 30.08 in    
Wind  
Wind Speed 4 mph (ENE)    
Max Wind Speed 13 mph    
Max Gust Speed 17 mph    
Visibility 10 miles    
Events      
Averages and records for this station are not official NWS values.
T = Trace of Precipitation, MM = Missing Value Source: NWS Daily Summary

Daily Weather History Graph

Daily Weather History Graph

Search for Another Location

Airport or City:

Trip Planner

Search our weather history database for the weather conditions in past years. The results will help you decide how hot, cold, wet, or windy it might be!

Date:

Astronomy

Jul. 10, 2012 Rise Set
Actual Time 6:08 AM EDT 9:09 PM EDT
Civil Twilight 5:34 AM EDT 9:43 PM EDT
Nautical Twilight 4:51 AM EDT 10:26 PM EDT
Astronomical Twilight 4:00 AM EDT 11:16 PM EDT
Moon 12:17 AM EDT (7/10) 1:41 PM EDT (7/10)
Length of Visible Light 16h 08m
Length of Day
15h 01m
Waning Gibbous, 54% of the Moon is Illuminated
Jul 10
Waning Gibbous
Jul 10
Last Quarter
Jul 19
New
Jul 26
First Quarter
Aug 1
Full

Hourly Weather History & Observations

Time (EDT) Temp. Heat Index Dew Point Humidity Pressure Visibility Wind Dir Wind Speed Gust Speed Precip Events Conditions
12:11 AM 66.2 °F - 66.2 °F 100% 30.01 in 10.0 mi Calm Calm - N/A   Clear
12:31 AM 64.4 °F - 64.4 °F 100% 30.01 in 7.0 mi Calm Calm - N/A   Clear
12:52 AM 66.2 °F - 66.2 °F 100% 30.02 in 10.0 mi Calm Calm - N/A   Clear
1:12 AM 66.2 °F - 66.2 °F 100% 30.01 in 10.0 mi Calm Calm - N/A   Clear
1:52 AM 66.2 °F - 66.2 °F 100% 30.03 in 10.0 mi North 5.8 mph - N/A   Clear
2:12 AM 66.2 °F - 66.2 °F 100% 30.03 in 10.0 mi North 4.6 mph - N/A   Scattered Clouds
2:32 AM 69.8 °F - 69.8 °F 100% 30.02 in 10.0 mi NE 4.6 mph - N/A   Mostly Cloudy
2:52 AM 69.8 °F - 68.0 °F 94% 30.02 in 10.0 mi ENE 3.5 mph - N/A   Mostly Cloudy
3:12 AM 68.0 °F - 68.0 °F 100% 30.02 in 10.0 mi NE 4.6 mph - N/A   Scattered Clouds
3:32 AM 68.0 °F - 68.0 °F 100% 30.03 in 10.0 mi NNE 3.5 mph - N/A   Clear
3:52 AM 68.0 °F - 66.2 °F 94% 30.03 in 10.0 mi NE 4.6 mph - N/A   Clear
4:13 AM 66.2 °F - 66.2 °F 100% 30.03 in 10.0 mi NNE 3.5 mph - N/A   Clear
4:53 AM 66.2 °F - 64.4 °F 94% 30.03 in 10.0 mi NNE 4.6 mph - N/A   Clear
5:13 AM 66.2 °F - 64.4 °F 94% 30.04 in 10.0 mi NNE 3.5 mph - N/A   Clear
5:33 AM 66.2 °F - 62.6 °F 88% 30.04 in 10.0 mi NNE 3.5 mph - N/A   Clear
5:53 AM 64.4 °F - 62.6 °F 94% 30.05 in 10.0 mi Calm Calm - N/A   Clear
6:13 AM 64.4 °F - 62.6 °F 94% 30.06 in 10.0 mi North 3.5 mph - N/A   Clear
6:34 AM 64.4 °F - 64.4 °F 100% 30.07 in 10.0 mi NNE 3.5 mph - N/A   Clear
6:54 AM 64.4 °F - 64.4 °F 100% 30.07 in 10.0 mi NNE 3.5 mph - N/A   Clear
7:34 AM 66.2 °F - 66.2 °F 100% 30.08 in 10.0 mi NNE 3.5 mph - N/A   Clear
7:54 AM 68.0 °F - 66.2 °F 94% 30.09 in 10.0 mi NE 4.6 mph - N/A   Clear
8:14 AM 69.8 °F - 66.2 °F 88% 30.09 in 10.0 mi NE 5.8 mph - N/A   Scattered Clouds
8:34 AM 69.8 °F - 64.4 °F 83% 30.09 in 10.0 mi ENE 3.5 mph - N/A   Scattered Clouds
8:54 AM 71.6 °F - 60.8 °F 69% 30.10 in 10.0 mi East 8.1 mph - N/A   Clear
9:14 AM 73.4 °F - 59.0 °F 61% 30.10 in 10.0 mi ENE 9.2 mph - N/A   Scattered Clouds
9:34 AM 73.4 °F - 59.0 °F 61% 30.10 in 10.0 mi NE 10.4 mph - N/A   Scattered Clouds
9:55 AM 73.4 °F - 57.2 °F 57% 30.11 in 10.0 mi ENE 9.2 mph - N/A   Clear
10:15 AM 73.4 °F - 57.2 °F 57% 30.11 in 10.0 mi ENE 6.9 mph - N/A   Scattered Clouds
10:35 AM 75.2 °F - 55.4 °F 50% 30.11 in 10.0 mi East 9.2 mph - N/A   Clear
10:55 AM 77.0 °F - 51.8 °F 41% 30.11 in 10.0 mi ENE 9.2 mph - N/A   Clear
11:15 AM 78.8 °F - 51.8 °F 39% 30.11 in 10.0 mi ENE 12.7 mph - N/A   Clear
11:35 AM 78.8 °F - 51.8 °F 39% 30.11 in 10.0 mi East 11.5 mph - N/A   Clear
11:55 AM 78.8 °F - 50.0 °F 36% 30.11 in 10.0 mi East 8.1 mph - N/A   Scattered Clouds
12:15 PM 78.8 °F - 48.2 °F 34% 30.11 in 10.0 mi NE 6.9 mph - N/A   Clear
12:35 PM 80.6 °F - 50.0 °F 34% 30.11 in 10.0 mi East 8.1 mph - N/A   Clear
12:56 PM 80.6 °F - 48.2 °F 32% 30.11 in 10.0 mi East 6.9 mph - N/A   Clear
1:16 PM 80.6 °F - 48.2 °F 32% 30.11 in 10.0 mi ENE 9.2 mph - N/A   Clear
1:36 PM 80.6 °F - 48.2 °F 32% 30.10 in 10.0 mi ENE 9.2 mph - N/A   Clear
1:56 PM 80.6 °F - 48.2 °F 32% 30.10 in 10.0 mi East 6.9 mph 17.3 mph N/A   Clear
2:16 PM 80.6 °F - 50.0 °F 34% 30.10 in 10.0 mi East 9.2 mph - N/A   Clear
2:31 PM 80.6 °F - 48.2 °F 32% 30.09 in 10.0 mi NE 4.6 mph - N/A   Clear
2:51 PM 80.6 °F - 51.8 °F 37% 30.09 in 10.0 mi East 10.4 mph - N/A   Clear
3:11 PM 80.6 °F - 50.0 °F 34% 30.09 in 10.0 mi ESE 10.4 mph - N/A   Clear
3:32 PM 80.6 °F - 51.8 °F 37% 30.09 in 10.0 mi SE 9.2 mph - N/A   Clear
3:52 PM 80.6 °F - 51.8 °F 37% 30.09 in 10.0 mi ESE 9.2 mph - N/A   Clear
4:12 PM 80.6 °F 80.3 °F 53.6 °F 39% 30.08 in 10.0 mi ESE 9.2 mph - N/A   Clear
4:32 PM 80.6 °F 80.3 °F 53.6 °F 39% 30.08 in 10.0 mi SE 10.4 mph - N/A   Clear
4:52 PM 80.6 °F 80.3 °F 53.6 °F 39% 30.08 in 10.0 mi ESE 6.9 mph - N/A   Clear
5:12 PM 80.6 °F 80.3 °F 53.6 °F 39% 30.07 in 7.0 mi East 10.4 mph - N/A   Clear
5:32 PM 80.6 °F 80.3 °F 53.6 °F 39% 30.07 in 5.0 mi East 8.1 mph - N/A   Haze
6:12 PM 80.6 °F - 51.8 °F 37% 30.07 in 10.0 mi East 8.1 mph - N/A   Clear
6:32 PM 80.6 °F 80.3 °F 53.6 °F 39% 30.07 in 10.0 mi East 5.8 mph - N/A   Clear
6:53 PM 80.6 °F 80.3 °F 53.6 °F 39% 30.06 in 10.0 mi ESE 6.9 mph - N/A   Clear
7:13 PM 78.8 °F - 53.6 °F 42% 30.06 in 10.0 mi ENE 6.9 mph - N/A   Clear
7:33 PM 78.8 °F - 53.6 °F 42% 30.07 in 10.0 mi East 5.8 mph - N/A   Clear
7:53 PM 78.8 °F - 55.4 °F 44% 30.07 in 10.0 mi ESE 4.6 mph - N/A   Clear
8:13 PM 77.0 °F - 55.4 °F 47% 30.07 in 10.0 mi SE 4.6 mph - N/A   Clear
8:33 PM 75.2 °F - 55.4 °F 50% 30.08 in 10.0 mi Calm Calm - N/A   Clear
8:53 PM 73.4 °F - 57.2 °F 57% 30.08 in 10.0 mi Calm Calm - N/A   Clear
9:13 PM 71.6 °F - 60.8 °F 69% 30.08 in 10.0 mi Calm Calm - N/A   Clear
9:34 PM 69.8 °F - 60.8 °F 73% 30.09 in 10.0 mi Calm Calm - N/A   Clear
9:54 PM 69.8 °F - 60.8 °F 73% 30.10 in 10.0 mi NE 3.5 mph - N/A   Scattered Clouds
10:14 PM 71.6 °F - 57.2 °F 60% 30.11 in 10.0 mi ENE 6.9 mph - N/A   Scattered Clouds
10:34 PM 71.6 °F - 57.2 °F 60% 30.11 in 10.0 mi ENE 8.1 mph - N/A   Clear
10:54 PM 71.6 °F - 57.2 °F 60% 30.12 in 10.0 mi ENE 4.6 mph - N/A   Clear
11:14 PM 69.8 °F - 57.2 °F 64% 30.12 in 10.0 mi ENE 5.8 mph - N/A   Clear
11:34 PM 69.8 °F - 57.2 °F 64% 30.13 in 10.0 mi ENE 4.6 mph - N/A   Clear
11:54 PM 69.8 °F - 55.4 °F 60% 30.13 in 10.0 mi NE 4.6 mph - N/A   Clear